createdAt,value
2022-12-27T00:01:12.269Z,16.37
2022-12-27T00:03:41.000Z,15.80
2022-12-27T00:06:12.886Z,16.53
2022-12-27T00:08:41.187Z,13.87
2022-12-27T00:11:10.499Z,17.67
2022-12-27T00:13:38.700Z,15.63
2022-12-27T00:16:08.591Z,15.77
2022-12-27T00:18:38.356Z,16.57
2022-12-27T00:21:08.371Z,15.63
2022-12-27T00:23:40.191Z,14.97
2022-12-27T00:26:12.758Z,17.60
2022-12-27T00:28:41.121Z,17.03
2022-12-27T00:31:09.742Z,15.80
2022-12-27T00:33:39.136Z,16.30
2022-12-27T00:36:09.145Z,15.17
2022-12-27T00:38:38.716Z,15.00
2022-12-27T00:41:07.742Z,14.13
2022-12-27T00:43:36.004Z,15.17
2022-12-27T00:46:04.842Z,15.60
2022-12-27T00:48:33.149Z,15.67
2022-12-27T00:51:03.040Z,14.50
2022-12-27T00:53:32.418Z,14.90
2022-12-27T00:56:02.031Z,14.53
2022-12-27T00:58:30.235Z,14.77
2022-12-27T01:01:07.733Z,14.10
2022-12-27T01:03:36.045Z,14.10
2022-12-27T01:06:07.821Z,13.43
2022-12-27T01:08:36.233Z,14.93
2022-12-27T01:11:07.148Z,14.53
2022-12-27T01:13:35.989Z,15.07
2022-12-27T01:16:09.654Z,13.30
2022-12-27T01:18:37.893Z,12.33
2022-12-27T01:21:07.427Z,12.97
2022-12-27T01:23:36.248Z,13.13
2022-12-27T01:26:07.620Z,12.43
2022-12-27T01:28:36.442Z,11.97
2022-12-27T01:31:07.052Z,12.13
2022-12-27T01:33:35.444Z,12.47
2022-12-27T01:36:14.991Z,11.40
2022-12-27T01:38:43.859Z,12.13
2022-12-27T01:41:36.285Z,13.37
2022-12-27T01:44:37.791Z,12.03
2022-12-27T01:47:14.277Z,11.03
2022-12-27T01:49:47.040Z,11.90
2022-12-27T01:52:15.779Z,11.10
2022-12-27T01:54:44.472Z,11.10
2022-12-27T01:57:14.126Z,11.20
2022-12-27T01:59:43.138Z,11.03
2022-12-27T02:02:11.479Z,10.70
2022-12-27T02:04:40.092Z,11.40
2022-12-27T02:07:08.348Z,10.10
2022-12-27T02:09:41.774Z,9.90
2022-12-27T02:12:11.586Z,10.13
2022-12-27T02:14:43.279Z,10.90
2022-12-27T02:17:14.375Z,10.27
2022-12-27T02:19:52.130Z,10.40
2022-12-27T02:23:16.314Z,10.90
2022-12-27T02:26:14.291Z,10.07
2022-12-27T02:29:03.610Z,10.43
2022-12-27T02:31:36.770Z,10.67
2022-12-27T02:34:10.352Z,9.67
2022-12-27T02:36:40.073Z,9.97
2022-12-27T02:39:09.952Z,10.70
2022-12-27T02:41:56.335Z,9.73
2022-12-27T02:44:43.987Z,9.43
2022-12-27T02:47:37.643Z,5.00
2022-12-27T02:50:25.316Z,5.03
2022-12-27T02:53:08.008Z,4.03
2022-12-27T02:56:16.686Z,2.30
2022-12-27T02:58:56.744Z,1.77
2022-12-27T03:01:54.891Z,1.20
2022-12-27T03:04:39.290Z,1.10
2022-12-27T03:07:24.654Z,1.03
2022-12-27T03:10:40.400Z,1.27
2022-12-27T03:13:37.573Z,1.03
2022-12-27T03:16:22.025Z,1.23
2022-12-27T03:19:06.291Z,1.43
2022-12-27T03:21:55.941Z,0.90
2022-12-27T03:24:45.314Z,1.60
2022-12-27T03:27:18.417Z,2.03
2022-12-27T03:30:10.629Z,1.33
2022-12-27T03:33:00.167Z,1.47
2022-12-27T03:35:32.706Z,1.70
2022-12-27T03:38:03.431Z,1.20
2022-12-27T03:40:39.068Z,1.30
2022-12-27T03:43:13.686Z,1.17
2022-12-27T03:46:14.513Z,1.60
2022-12-27T03:49:05.353Z,1.47
2022-12-27T03:51:38.979Z,1.40
2022-12-27T03:54:11.868Z,1.13
2022-12-27T03:56:42.577Z,1.27
2022-12-27T03:59:12.442Z,1.60
2022-12-27T04:01:42.502Z,1.27
2022-12-27T04:04:10.918Z,1.50
2022-12-27T04:06:40.530Z,1.30
2022-12-27T04:09:27.811Z,1.17
2022-12-27T04:12:13.574Z,1.40
2022-12-27T04:14:59.266Z,0.83
2022-12-27T04:17:45.180Z,1.60
2022-12-27T04:20:31.106Z,1.30
2022-12-27T04:23:18.111Z,1.20
2022-12-27T04:26:04.174Z,1.93
2022-12-27T04:28:49.790Z,1.50
2022-12-27T04:31:35.283Z,1.53
2022-12-27T04:34:20.678Z,1.53
2022-12-27T04:36:48.928Z,1.10
2022-12-27T04:39:18.771Z,1.67
2022-12-27T04:42:03.564Z,1.23
2022-12-27T04:44:49.249Z,1.20
2022-12-27T04:47:37.834Z,1.20
2022-12-27T04:50:30.474Z,1.40
2022-12-27T04:53:15.850Z,1.07
2022-12-27T04:55:45.399Z,1.43
2022-12-27T04:58:13.576Z,1.80
2022-12-27T05:00:59.211Z,2.70
2022-12-27T05:03:27.481Z,2.33
2022-12-27T05:05:55.697Z,2.47
2022-12-27T05:08:52.818Z,2.67
2022-12-27T05:11:39.812Z,2.47
2022-12-27T05:14:11.961Z,1.80
2022-12-27T05:16:41.538Z,2.67
2022-12-27T05:19:11.619Z,2.57
2022-12-27T05:21:40.828Z,2.63
2022-12-27T05:24:26.928Z,2.63
2022-12-27T05:26:58.555Z,2.90
2022-12-27T05:29:28.121Z,3.07
2022-12-27T05:31:56.311Z,3.80
2022-12-27T05:34:24.504Z,3.23
2022-12-27T05:36:52.893Z,2.00
2022-12-27T05:39:21.103Z,2.80
2022-12-27T05:41:51.788Z,2.17
2022-12-27T05:44:29.990Z,2.30
2022-12-27T05:46:58.257Z,1.50
2022-12-27T05:49:26.503Z,2.20
2022-12-27T05:51:57.581Z,2.43
2022-12-27T05:54:28.433Z,1.77
2022-12-27T05:56:56.593Z,2.07
2022-12-27T05:59:26.126Z,1.37
2022-12-27T06:01:54.567Z,1.70
2022-12-27T06:04:22.836Z,1.90
2022-12-27T06:06:51.114Z,1.60
2022-12-27T06:09:21.585Z,2.17
2022-12-27T06:11:50.406Z,2.00
2022-12-27T06:14:18.636Z,2.20
2022-12-27T06:16:48.299Z,1.97
2022-12-27T06:19:16.972Z,3.03
2022-12-27T06:21:45.171Z,2.07
2022-12-27T06:24:13.291Z,2.30
2022-12-27T06:26:42.280Z,2.17
2022-12-27T06:29:13.007Z,3.00
2022-12-27T06:31:41.641Z,2.53
2022-12-27T06:34:12.867Z,3.30
2022-12-27T06:36:41.116Z,3.17
2022-12-27T06:39:09.272Z,3.53
2022-12-27T06:41:37.417Z,4.77
2022-12-27T06:44:05.944Z,5.70
2022-12-27T06:46:34.129Z,3.63
2022-12-27T06:49:02.416Z,3.27
2022-12-27T06:51:31.967Z,3.00
2022-12-27T06:54:00.150Z,2.73
2022-12-27T06:56:28.334Z,2.57
2022-12-27T06:58:56.480Z,3.17
2022-12-27T07:01:26.923Z,2.90
2022-12-27T07:03:56.895Z,2.73
2022-12-27T07:06:26.762Z,2.10
2022-12-27T07:08:57.569Z,2.33
2022-12-27T07:11:25.979Z,2.87
2022-12-27T07:13:56.515Z,3.00
2022-12-27T07:16:26.860Z,3.90
2022-12-27T07:18:56.362Z,3.37
2022-12-27T07:21:27.086Z,2.93
2022-12-27T07:23:56.898Z,3.00
2022-12-27T07:26:27.921Z,3.33
2022-12-27T07:28:57.054Z,3.23
2022-12-27T07:31:26.682Z,2.63
2022-12-27T07:33:55.067Z,2.63
2022-12-27T07:36:25.970Z,2.70
2022-12-27T07:38:54.363Z,2.20
2022-12-27T07:41:24.769Z,2.73
2022-12-27T07:43:53.058Z,2.90
2022-12-27T07:46:23.786Z,2.53
2022-12-27T07:48:54.280Z,2.33
2022-12-27T07:51:22.561Z,2.47
2022-12-27T07:53:51.753Z,3.07
2022-12-27T07:56:27.000Z,2.97
2022-12-27T07:58:56.910Z,2.67
2022-12-27T08:01:26.751Z,2.17
2022-12-27T08:03:55.423Z,2.57
2022-12-27T08:06:25.409Z,2.63
2022-12-27T08:08:55.211Z,2.63
2022-12-27T08:11:23.462Z,3.43
2022-12-27T08:13:53.037Z,2.60
2022-12-27T08:16:23.788Z,2.73
2022-12-27T08:18:53.084Z,2.47
2022-12-27T08:21:21.251Z,2.47
2022-12-27T08:23:49.432Z,3.00
2022-12-27T08:26:17.638Z,2.70
2022-12-27T08:28:45.846Z,3.03
2022-12-27T08:31:15.700Z,2.63
2022-12-27T08:33:43.916Z,2.70
2022-12-27T08:36:52.983Z,2.60
2022-12-27T08:39:01.781Z,3.13
2022-12-27T08:41:29.944Z,2.93
2022-12-27T08:43:58.060Z,3.77
2022-12-27T08:46:27.662Z,3.67
2022-12-27T08:48:55.816Z,3.27
2022-12-27T08:51:34.364Z,3.50
2022-12-27T08:54:08.796Z,2.77
2022-12-27T08:56:37.085Z,2.87
2022-12-27T08:59:05.333Z,2.73
2022-12-27T09:01:34.984Z,3.10
2022-12-27T09:04:03.213Z,4.23
2022-12-27T09:06:31.679Z,4.03
2022-12-27T09:09:01.409Z,3.10
2022-12-27T09:11:31.470Z,3.53
2022-12-27T09:14:00.984Z,4.20
2022-12-27T09:16:30.326Z,4.33
2022-12-27T09:19:01.062Z,3.93
2022-12-27T09:21:31.730Z,4.00
2022-12-27T09:24:00.446Z,4.17
2022-12-27T09:26:30.734Z,3.30
2022-12-27T09:29:00.138Z,2.47
2022-12-27T09:31:28.991Z,2.53
2022-12-27T09:33:57.924Z,3.10
2022-12-27T09:36:28.847Z,3.93
2022-12-27T09:38:58.583Z,3.03
2022-12-27T09:42:41.241Z,2.40
2022-12-27T09:44:34.606Z,2.07
2022-12-27T09:47:11.711Z,2.63
2022-12-27T09:49:44.373Z,2.33
2022-12-27T09:52:17.724Z,2.87
2022-12-27T09:54:59.450Z,2.87
2022-12-27T09:57:38.226Z,2.57
2022-12-27T10:00:15.729Z,3.37
2022-12-27T10:02:45.517Z,2.33
2022-12-27T10:05:22.102Z,2.37
2022-12-27T10:08:09.694Z,2.50
2022-12-27T10:10:43.315Z,2.67
2022-12-27T10:13:24.678Z,2.80
2022-12-27T10:16:01.947Z,2.63
2022-12-27T10:18:40.982Z,3.10
2022-12-27T10:21:19.224Z,3.23
2022-12-27T10:23:55.352Z,3.23
2022-12-27T10:26:23.753Z,4.50
2022-12-27T10:28:57.613Z,2.57
2022-12-27T10:31:27.379Z,2.60
2022-12-27T10:33:55.880Z,2.30
2022-12-27T10:36:27.777Z,2.67
2022-12-27T10:38:57.342Z,2.10
2022-12-27T10:41:36.853Z,2.23
2022-12-27T10:44:11.551Z,2.80
2022-12-27T10:46:42.546Z,3.00
2022-12-27T10:49:25.916Z,4.27
2022-12-27T10:51:56.970Z,2.27
2022-12-27T10:54:28.964Z,2.67
2022-12-27T10:57:01.296Z,2.57
2022-12-27T10:59:30.367Z,2.80
2022-12-27T11:02:19.149Z,3.60
2022-12-27T11:04:59.478Z,2.00
2022-12-27T11:07:31.545Z,2.60
2022-12-27T11:10:18.102Z,2.60
2022-12-27T11:13:01.794Z,2.83
2022-12-27T11:15:31.676Z,2.90
2022-12-27T11:18:02.699Z,3.03
2022-12-27T11:20:41.682Z,2.70
2022-12-27T11:23:18.378Z,2.70
2022-12-27T11:25:54.891Z,3.50
2022-12-27T11:28:28.938Z,3.33
2022-12-27T11:30:59.718Z,2.90
2022-12-27T11:33:37.562Z,2.97
2022-12-27T11:36:06.752Z,3.30
2022-12-27T11:38:37.541Z,3.23
2022-12-27T11:41:10.767Z,2.83
2022-12-27T11:43:46.307Z,3.00
2022-12-27T11:46:25.953Z,2.53
2022-12-27T11:48:58.530Z,1.50
2022-12-27T11:51:50.340Z,2.60
2022-12-27T11:54:46.498Z,2.10
2022-12-27T11:57:26.252Z,1.63
2022-12-27T12:00:02.411Z,2.53
2022-12-27T12:02:42.589Z,2.87
2022-12-27T12:05:44.043Z,2.67
2022-12-27T12:08:49.864Z,2.73
2022-12-27T12:11:30.492Z,2.93
2022-12-27T12:14:35.906Z,2.70
2022-12-27T12:17:23.834Z,3.13
2022-12-27T12:20:13.044Z,3.13
2022-12-27T12:22:55.956Z,3.27
2022-12-27T12:25:53.455Z,3.50
2022-12-27T12:29:05.849Z,4.00
2022-12-27T12:31:53.650Z,3.23
2022-12-27T12:34:38.297Z,3.53
2022-12-27T12:37:18.779Z,3.53
2022-12-27T12:40:01.090Z,3.53
2022-12-27T12:42:41.855Z,3.77
2022-12-27T12:45:33.210Z,2.87
2022-12-27T12:48:29.862Z,5.20
2022-12-27T12:51:31.801Z,3.90
2022-12-27T12:54:22.820Z,3.77
2022-12-27T12:57:14.713Z,4.83
2022-12-27T13:00:08.804Z,4.07
2022-12-27T13:03:10.372Z,4.77
2022-12-27T13:05:48.471Z,4.00
2022-12-27T13:08:24.192Z,3.67
2022-12-27T13:11:05.704Z,3.97
2022-12-27T13:13:48.722Z,5.10
2022-12-27T13:16:27.590Z,5.13
2022-12-27T13:19:06.828Z,5.40
2022-12-27T13:21:52.482Z,3.87
2022-12-27T13:24:29.991Z,5.03
2022-12-27T13:27:07.450Z,5.50
2022-12-27T13:29:47.488Z,5.90
2022-12-27T13:32:28.850Z,5.30
2022-12-27T13:35:07.759Z,5.43
2022-12-27T13:37:52.684Z,4.13
2022-12-27T13:40:53.166Z,5.43
2022-12-27T13:43:57.626Z,5.90
2022-12-27T13:46:43.108Z,5.43
2022-12-27T13:49:31.499Z,4.43
2022-12-27T13:52:09.030Z,5.20
2022-12-27T13:55:01.115Z,6.07
2022-12-27T13:57:59.222Z,5.63
2022-12-27T14:00:33.331Z,5.43
2022-12-27T14:03:39.910Z,5.70
2022-12-27T14:06:35.008Z,5.83
2022-12-27T14:09:51.029Z,5.67
2022-12-27T14:12:59.416Z,5.87
2022-12-27T14:15:39.307Z,5.37
2022-12-27T14:18:23.711Z,5.30
2022-12-27T14:21:06.738Z,5.60
2022-12-27T14:23:51.804Z,5.13
2022-12-27T14:26:57.359Z,5.10
2022-12-27T14:30:22.928Z,5.77
2022-12-27T14:33:32.656Z,6.10
2022-12-27T14:36:48.680Z,6.17
2022-12-27T14:39:56.324Z,4.50
2022-12-27T14:43:04.789Z,5.53
2022-12-27T14:46:10.748Z,5.90
2022-12-27T14:49:15.496Z,5.57
2022-12-27T14:52:28.790Z,5.53
2022-12-27T14:55:26.263Z,6.33
2022-12-27T14:58:18.894Z,6.80
2022-12-27T15:01:01.461Z,5.83
2022-12-27T15:03:46.563Z,6.70
2022-12-27T15:06:21.194Z,7.30
2022-12-27T15:09:06.953Z,7.37
2022-12-27T15:12:00.880Z,8.37
2022-12-27T15:14:46.806Z,6.90
2022-12-27T15:17:25.623Z,7.90
2022-12-27T15:20:15.027Z,8.03
2022-12-27T15:22:54.530Z,6.87
2022-12-27T15:25:30.650Z,6.57
2022-12-27T15:28:08.631Z,7.90
2022-12-27T15:30:44.961Z,6.70
2022-12-27T15:33:21.410Z,5.43
2022-12-27T15:35:58.141Z,8.10
2022-12-27T15:38:53.399Z,6.00
2022-12-27T15:41:33.624Z,6.80
2022-12-27T15:44:30.644Z,6.50
2022-12-27T15:47:35.999Z,6.20
2022-12-27T15:50:28.942Z,7.70
2022-12-27T15:53:26.691Z,7.03
2022-12-27T15:56:32.065Z,6.23
2022-12-27T15:59:33.206Z,6.37
2022-12-27T16:02:31.086Z,6.70
2022-12-27T16:05:04.194Z,6.70
2022-12-27T16:07:42.108Z,6.67
2022-12-27T16:10:50.080Z,6.97
2022-12-27T16:13:46.437Z,6.00
2022-12-27T16:16:56.968Z,6.53
2022-12-27T16:19:50.640Z,6.10
2022-12-27T16:22:37.640Z,6.23
2022-12-27T16:25:30.714Z,6.20
2022-12-27T16:28:04.541Z,6.30
2022-12-27T16:30:39.915Z,6.07
2022-12-27T16:33:22.060Z,6.00
2022-12-27T16:36:13.890Z,5.63
2022-12-27T16:38:48.027Z,5.20
2022-12-27T16:41:22.286Z,5.43
2022-12-27T16:44:06.777Z,6.00
2022-12-27T16:46:49.601Z,5.93
2022-12-27T16:50:05.585Z,5.07
2022-12-27T16:52:58.047Z,4.30
2022-12-27T16:55:53.935Z,4.77
2022-12-27T16:58:25.926Z,5.17
2022-12-27T17:00:57.386Z,5.80
2022-12-27T17:03:32.739Z,5.07
2022-12-27T17:09:33.809Z,4.07
2022-12-27T17:12:07.575Z,5.00
2022-12-27T17:14:38.314Z,6.03
2022-12-27T17:17:15.331Z,6.17
2022-12-27T17:19:49.468Z,5.70
2022-12-27T17:22:19.130Z,6.73
2022-12-27T17:24:49.474Z,6.27
2022-12-27T17:27:27.820Z,6.57
2022-12-27T17:30:16.936Z,7.13
2022-12-27T17:33:18.527Z,5.87
2022-12-27T17:36:13.398Z,5.77
2022-12-27T17:38:52.788Z,5.90
2022-12-27T17:41:52.468Z,5.77
2022-12-27T17:44:41.264Z,5.90
2022-12-27T17:47:32.021Z,5.57
2022-12-27T17:50:02.969Z,6.83
2022-12-27T17:52:48.559Z,6.33
2022-12-27T17:55:38.903Z,6.37
2022-12-27T17:58:10.410Z,6.40
2022-12-27T18:00:51.650Z,6.17
2022-12-27T18:03:19.917Z,6.37
2022-12-27T18:05:50.692Z,6.57
2022-12-27T18:08:25.773Z,6.43
2022-12-27T18:10:54.052Z,7.70
2022-12-27T18:13:25.845Z,7.90
2022-12-27T18:15:54.439Z,7.20
2022-12-27T18:18:27.399Z,6.33
2022-12-27T18:21:04.062Z,6.27
2022-12-27T18:23:41.867Z,8.00
2022-12-27T18:26:13.775Z,6.80
2022-12-27T18:28:43.121Z,7.37
2022-12-27T18:31:16.900Z,8.33
2022-12-27T18:33:50.098Z,7.93
2022-12-27T18:36:30.775Z,8.90
2022-12-27T18:39:01.336Z,7.20
2022-12-27T18:41:37.848Z,7.83
2022-12-27T18:44:14.397Z,8.57
2022-12-27T18:46:42.542Z,7.83
2022-12-27T18:49:25.181Z,5.93
2022-12-27T18:51:55.727Z,7.17
2022-12-27T18:54:34.211Z,5.90
2022-12-27T18:57:04.524Z,7.03
2022-12-27T18:59:37.029Z,5.73
2022-12-27T19:02:33.673Z,6.57
2022-12-27T19:05:16.559Z,7.20
2022-12-27T19:07:46.969Z,6.50
2022-12-27T19:10:19.521Z,7.83
2022-12-27T19:12:50.078Z,6.57
2022-12-27T19:15:21.941Z,6.53
2022-12-27T19:17:53.013Z,7.70
2022-12-27T19:20:26.129Z,6.37
2022-12-27T19:22:59.019Z,6.73
2022-12-27T19:25:30.005Z,6.67
2022-12-27T19:28:03.237Z,6.90
2022-12-27T19:30:39.112Z,5.90
2022-12-27T19:33:11.193Z,6.93
2022-12-27T19:35:42.003Z,7.07
2022-12-27T19:38:20.641Z,6.90
2022-12-27T19:40:50.767Z,6.83
2022-12-27T19:43:20.066Z,6.20
2022-12-27T19:45:48.566Z,5.10
2022-12-27T19:48:16.790Z,6.43
2022-12-27T19:50:49.567Z,6.20
2022-12-27T19:53:22.000Z,6.77
2022-12-27T19:55:50.126Z,7.23
2022-12-27T19:58:23.200Z,5.80
2022-12-27T20:00:51.361Z,6.17
2022-12-27T20:03:20.097Z,5.37
2022-12-27T20:06:13.623Z,6.60
2022-12-27T20:08:44.967Z,6.33
2022-12-27T20:11:16.514Z,5.83
2022-12-27T20:13:46.958Z,6.70
2022-12-27T20:16:18.444Z,6.97
2022-12-27T20:18:47.835Z,7.13
2022-12-27T20:21:18.029Z,6.93
2022-12-27T20:23:48.765Z,6.53
2022-12-27T20:26:20.117Z,6.33
2022-12-27T20:28:48.303Z,5.93
2022-12-27T20:31:19.154Z,6.20
2022-12-27T20:33:52.282Z,6.23
2022-12-27T20:36:20.733Z,6.60
2022-12-27T20:38:51.626Z,6.10
2022-12-27T20:41:22.262Z,7.83
2022-12-27T20:43:56.071Z,6.13
2022-12-27T20:46:24.246Z,6.97
2022-12-27T20:48:53.801Z,6.87
2022-12-27T20:51:24.685Z,5.30
2022-12-27T20:53:58.042Z,6.77
2022-12-27T20:56:26.482Z,6.03
2022-12-27T20:58:54.749Z,6.23
2022-12-27T21:01:24.768Z,6.73
2022-12-27T21:03:54.405Z,6.10
2022-12-27T21:06:24.724Z,6.70
2022-12-27T21:08:57.391Z,5.43
2022-12-27T21:11:30.322Z,5.70
2022-12-27T21:13:59.012Z,5.50
2022-12-27T21:16:29.565Z,6.07
2022-12-27T21:18:58.258Z,6.23
2022-12-27T21:21:28.853Z,5.53
2022-12-27T21:23:57.769Z,5.73
2022-12-27T21:26:29.331Z,6.00
2022-12-27T21:28:58.513Z,5.70
2022-12-27T21:31:27.463Z,6.33
2022-12-27T21:33:55.705Z,5.83
2022-12-27T21:36:25.603Z,6.17
2022-12-27T21:38:54.744Z,5.93
2022-12-27T21:41:24.627Z,6.40
2022-12-27T21:43:56.972Z,6.13
2022-12-27T21:46:26.976Z,5.40
2022-12-27T21:48:57.046Z,6.27
2022-12-27T21:51:25.745Z,6.30
2022-12-27T21:53:54.132Z,6.40
2022-12-27T21:56:22.893Z,5.70
2022-12-27T21:58:51.244Z,5.13
2022-12-27T22:01:22.801Z,4.87
2022-12-27T22:03:52.885Z,5.40
2022-12-27T22:06:23.362Z,4.73
2022-12-27T22:08:53.585Z,4.97
2022-12-27T22:11:23.375Z,4.87
2022-12-27T22:13:52.062Z,5.03
2022-12-27T22:16:22.617Z,4.70
2022-12-27T22:18:51.174Z,5.50
2022-12-27T22:21:21.498Z,5.50
2022-12-27T22:23:51.341Z,5.20
2022-12-27T22:26:21.577Z,5.47
2022-12-27T22:28:50.072Z,6.80
2022-12-27T22:31:20.020Z,6.87
2022-12-27T22:33:50.742Z,5.30
2022-12-27T22:36:20.727Z,5.37
2022-12-27T22:38:50.338Z,4.83
2022-12-27T22:41:20.661Z,4.63
2022-12-27T22:43:51.441Z,5.30
2022-12-27T22:46:20.114Z,4.87
2022-12-27T22:48:52.582Z,5.67
2022-12-27T22:51:23.912Z,5.63
2022-12-27T22:53:52.308Z,4.53
2022-12-27T22:56:22.692Z,4.83
2022-12-27T22:58:51.187Z,5.23
2022-12-27T23:01:21.674Z,5.50
2022-12-27T23:03:51.728Z,5.37
2022-12-27T23:06:20.910Z,5.40
2022-12-27T23:08:49.922Z,4.80
2022-12-27T23:11:20.779Z,6.10
2022-12-27T23:13:50.107Z,7.57
2022-12-27T23:16:18.269Z,7.07
2022-12-27T23:18:46.741Z,6.30
2022-12-27T23:21:21.773Z,5.10
2022-12-27T23:23:53.136Z,5.67
2022-12-27T23:26:23.607Z,5.10
2022-12-27T23:28:53.703Z,4.90
2022-12-27T23:31:23.477Z,4.93
2022-12-27T23:33:52.048Z,5.90
2022-12-27T23:36:22.256Z,6.73
2022-12-27T23:38:51.182Z,7.50
2022-12-27T23:41:20.965Z,5.90
2022-12-27T23:43:52.837Z,6.30
2022-12-27T23:46:24.955Z,6.53
2022-12-27T23:48:53.381Z,5.40
2022-12-27T23:51:23.218Z,5.27
2022-12-27T23:53:51.422Z,7.13
2022-12-27T23:56:21.526Z,5.90
2022-12-27T23:58:51.084Z,6.87
